createdAt,value
2023-01-29T00:01:57.451Z,97318.69
2023-01-29T00:04:24.254Z,97337.72
2023-01-29T00:06:50.970Z,97328.41
2023-01-29T00:09:17.875Z,97311.94
2023-01-29T00:11:44.924Z,97283.25
2023-01-29T00:14:11.566Z,97311.38
2023-01-29T00:16:38.228Z,97308.38
2023-01-29T00:19:05.422Z,97312.56
2023-01-29T00:21:32.302Z,97313.19
2023-01-29T00:24:00.099Z,97317.56
2023-01-29T00:26:27.604Z,97319.13
2023-01-29T00:28:55.279Z,97337.75
2023-01-29T00:31:24.126Z,97292.41
2023-01-29T00:33:51.168Z,97284.66
2023-01-29T00:36:20.081Z,97275.38
2023-01-29T00:38:58.457Z,97294.22
2023-01-29T00:41:49.263Z,97308.44
2023-01-29T00:44:34.597Z,97319.53
2023-01-29T00:47:01.772Z,97292.22
2023-01-29T00:49:30.111Z,97270.63
2023-01-29T00:52:16.706Z,97277.53
2023-01-29T00:54:43.347Z,97281.53
2023-01-29T00:57:09.974Z,97307.28
2023-01-29T00:59:37.850Z,97295.00
2023-01-29T01:02:23.085Z,97266.88
2023-01-29T01:04:49.754Z,97297.38
2023-01-29T01:07:16.585Z,97305.47
2023-01-29T01:10:02.039Z,97279.97
2023-01-29T01:12:31.740Z,97311.06
2023-01-29T01:14:58.363Z,97315.00
2023-01-29T01:17:25.109Z,97273.81
2023-01-29T01:19:51.915Z,97287.50
2023-01-29T01:22:18.885Z,97312.66
2023-01-29T01:24:45.558Z,97316.19
2023-01-29T01:27:12.844Z,97257.84
2023-01-29T01:29:39.522Z,97282.75
2023-01-29T01:32:06.422Z,97317.59
2023-01-29T01:34:33.150Z,97307.88
2023-01-29T01:37:00.764Z,97276.44
2023-01-29T01:39:27.548Z,97269.84
2023-01-29T01:41:55.127Z,97274.47
2023-01-29T01:44:49.814Z,97301.16
2023-01-29T01:47:20.111Z,97266.53
2023-01-29T01:49:47.571Z,97271.66
2023-01-29T01:52:17.955Z,97263.56
2023-01-29T01:54:44.934Z,97266.50
2023-01-29T01:57:18.408Z,97295.25
2023-01-29T01:59:52.378Z,97259.81
2023-01-29T02:02:38.721Z,97281.94
2023-01-29T02:05:24.770Z,97291.47
2023-01-29T02:08:10.472Z,97312.25
2023-01-29T02:10:48.575Z,97311.25
2023-01-29T02:13:17.813Z,97261.38
2023-01-29T02:15:48.811Z,97309.47
2023-01-29T02:18:17.791Z,97270.88
2023-01-29T02:20:57.230Z,97297.00
2023-01-29T02:23:52.411Z,97280.16
2023-01-29T02:26:38.051Z,97316.03
2023-01-29T02:29:23.121Z,97300.59
2023-01-29T02:32:30.618Z,97297.41
2023-01-29T02:35:46.640Z,97239.59
2023-01-29T02:38:24.443Z,97299.78
2023-01-29T02:40:57.421Z,97298.81
2023-01-29T02:43:59.009Z,97299.41
2023-01-29T02:46:34.676Z,97299.59
2023-01-29T02:49:16.011Z,97297.81
2023-01-29T02:51:49.804Z,97259.00
2023-01-29T02:54:55.330Z,97287.53
2023-01-29T02:57:29.288Z,97300.19
2023-01-29T03:00:00.320Z,97307.91
2023-01-29T03:02:51.182Z,97299.81
2023-01-29T03:05:26.225Z,97266.91
2023-01-29T03:08:00.489Z,97277.59
2023-01-29T03:10:51.092Z,97310.91
2023-01-29T03:13:40.641Z,97276.00
2023-01-29T03:16:27.057Z,97319.41
2023-01-29T03:19:18.909Z,97305.69
2023-01-29T03:22:01.214Z,97312.22
2023-01-29T03:24:56.270Z,97304.13
2023-01-29T03:27:48.008Z,97287.72
2023-01-29T03:30:35.225Z,97303.53
2023-01-29T03:33:27.859Z,97317.63
2023-01-29T03:36:00.838Z,97324.13
2023-01-29T03:38:29.786Z,97322.94
2023-01-29T03:41:03.359Z,97298.19
2023-01-29T03:43:37.015Z,97310.44
2023-01-29T03:46:19.130Z,97304.53
2023-01-29T03:48:59.360Z,97287.47
2023-01-29T03:51:53.523Z,97329.91
2023-01-29T03:54:48.054Z,97333.47
2023-01-29T03:57:42.982Z,97333.84
2023-01-29T04:00:41.058Z,97327.13
2023-01-29T04:03:07.902Z,97338.59
2023-01-29T04:05:42.708Z,97325.50
2023-01-29T04:08:25.112Z,97312.81
2023-01-29T04:10:57.298Z,97307.09
2023-01-29T04:13:25.176Z,97313.44
2023-01-29T04:15:58.291Z,97313.03
2023-01-29T04:18:48.259Z,97307.84
2023-01-29T04:21:16.503Z,97321.16
2023-01-29T04:23:43.799Z,97309.09
2023-01-29T04:26:42.544Z,97327.31
2023-01-29T04:29:38.451Z,97312.66
2023-01-29T04:32:38.796Z,97315.03
2023-01-29T04:35:11.956Z,97310.09
2023-01-29T04:37:47.603Z,97307.28
2023-01-29T04:40:31.785Z,97308.06
2023-01-29T04:43:09.907Z,97297.38
2023-01-29T04:45:39.692Z,97313.63
2023-01-29T04:48:12.307Z,97319.97
2023-01-29T04:50:46.939Z,97240.06
2023-01-29T04:53:24.265Z,97298.00
2023-01-29T04:56:06.307Z,97301.34
2023-01-29T04:58:39.497Z,97283.72
2023-01-29T05:01:09.669Z,97296.78
2023-01-29T05:03:39.220Z,97280.13
2023-01-29T05:06:09.704Z,97296.56
2023-01-29T05:08:39.135Z,97260.38
2023-01-29T05:11:06.304Z,97287.88
2023-01-29T05:13:39.441Z,97288.09
2023-01-29T05:16:09.369Z,97289.88
2023-01-29T05:18:36.324Z,97238.81
2023-01-29T05:21:07.430Z,97311.44
2023-01-29T05:23:34.486Z,97307.09
2023-01-29T05:26:01.229Z,97286.88
2023-01-29T05:28:27.816Z,97255.78
2023-01-29T05:30:56.864Z,97224.91
2023-01-29T05:33:23.463Z,97290.25
2023-01-29T05:35:50.567Z,97292.81
2023-01-29T05:38:19.254Z,97261.28
2023-01-29T05:40:46.649Z,97279.13
2023-01-29T05:43:19.556Z,97242.72
2023-01-29T05:45:57.576Z,97229.84
2023-01-29T05:48:24.762Z,97225.50
2023-01-29T05:50:51.921Z,97209.44
2023-01-29T05:53:18.546Z,97227.66
2023-01-29T05:55:48.168Z,97257.81
2023-01-29T05:58:15.121Z,97253.66
2023-01-29T06:00:41.824Z,97240.00
2023-01-29T06:03:08.494Z,97213.28
2023-01-29T06:05:38.160Z,97243.97
2023-01-29T06:08:05.360Z,97257.81
2023-01-29T06:10:32.006Z,97232.69
2023-01-29T06:12:58.818Z,97226.13
2023-01-29T06:15:26.586Z,97223.16
2023-01-29T06:17:57.121Z,97232.44
2023-01-29T06:20:24.671Z,97270.88
2023-01-29T06:22:51.394Z,97265.91
2023-01-29T06:25:18.077Z,97231.03
2023-01-29T06:27:44.818Z,97256.59
2023-01-29T06:30:11.999Z,97239.75
2023-01-29T06:32:38.793Z,97267.50
2023-01-29T06:35:05.964Z,97238.19
2023-01-29T06:37:32.528Z,97247.88
2023-01-29T06:39:59.126Z,97272.63
2023-01-29T06:42:28.016Z,97249.47
2023-01-29T06:44:57.815Z,97271.63
2023-01-29T06:47:24.801Z,97262.94
2023-01-29T06:49:52.150Z,97253.19
2023-01-29T06:52:18.856Z,97256.38
2023-01-29T06:54:47.807Z,97266.06
2023-01-29T06:57:14.417Z,97268.06
2023-01-29T06:59:41.040Z,97278.97
2023-01-29T07:02:07.666Z,97275.03
2023-01-29T07:04:35.501Z,97249.88
2023-01-29T07:07:02.161Z,97276.44
2023-01-29T07:09:28.905Z,97282.56
2023-01-29T07:11:55.561Z,97252.06
2023-01-29T07:14:22.167Z,97282.16
2023-01-29T07:16:48.769Z,97262.78
2023-01-29T07:19:15.524Z,97258.56
2023-01-29T07:21:42.131Z,97216.03
2023-01-29T07:24:09.080Z,97279.22
2023-01-29T07:26:35.746Z,97285.13
2023-01-29T07:29:02.359Z,97278.19
2023-01-29T07:31:29.144Z,97314.44
2023-01-29T07:33:55.996Z,97261.97
2023-01-29T07:36:24.026Z,97230.09
2023-01-29T07:38:51.555Z,97313.63
2023-01-29T07:41:18.263Z,97305.72
2023-01-29T07:43:46.245Z,97312.44
2023-01-29T07:46:13.007Z,97290.88
2023-01-29T07:48:39.691Z,97272.66
2023-01-29T07:51:06.785Z,97319.75
2023-01-29T07:53:33.469Z,97299.97
2023-01-29T07:56:00.089Z,97307.47
2023-01-29T07:58:26.813Z,97316.59
2023-01-29T08:00:53.431Z,97341.16
2023-01-29T08:03:20.787Z,97345.34
2023-01-29T08:05:48.000Z,97335.41
2023-01-29T08:08:15.061Z,97352.06
2023-01-29T08:10:42.053Z,97352.88
2023-01-29T08:13:09.223Z,97327.53
2023-01-29T08:15:38.930Z,97308.25
2023-01-29T08:18:06.093Z,97335.78
2023-01-29T08:20:32.780Z,97361.56
2023-01-29T08:23:01.499Z,97371.44
2023-01-29T08:25:29.225Z,97355.00
2023-01-29T08:28:00.048Z,97344.50
2023-01-29T08:30:28.749Z,97364.88
2023-01-29T08:32:55.569Z,97353.59
2023-01-29T08:35:22.600Z,97318.56
2023-01-29T08:37:59.255Z,97323.13
2023-01-29T08:40:27.333Z,97285.53
2023-01-29T08:43:01.983Z,97340.56
2023-01-29T08:45:30.165Z,97284.34
2023-01-29T08:47:57.136Z,97336.22
2023-01-29T08:50:26.665Z,97293.44
2023-01-29T08:52:58.396Z,97339.97
2023-01-29T08:55:25.790Z,97352.47
2023-01-29T08:57:52.440Z,97341.16
2023-01-29T09:00:19.565Z,97354.81
2023-01-29T09:02:46.478Z,97303.16
2023-01-29T09:05:13.068Z,97289.66
2023-01-29T09:07:39.687Z,97298.75
2023-01-29T09:10:06.950Z,97344.94
2023-01-29T09:12:33.692Z,97352.22
2023-01-29T09:15:00.292Z,97296.19
2023-01-29T09:17:26.888Z,97332.63
2023-01-29T09:19:53.541Z,97322.53
2023-01-29T09:22:20.606Z,97352.81
2023-01-29T09:24:47.287Z,97350.59
2023-01-29T09:27:13.915Z,97307.06
2023-01-29T09:29:40.529Z,97311.75
2023-01-29T09:32:07.422Z,97347.22
2023-01-29T09:34:34.582Z,97324.81
2023-01-29T09:37:01.390Z,97329.34
2023-01-29T09:39:28.054Z,97325.19
2023-01-29T09:42:25.717Z,97341.41
2023-01-29T09:45:01.396Z,97359.84
2023-01-29T09:47:29.822Z,97357.09
2023-01-29T09:50:08.239Z,97314.22
2023-01-29T09:52:58.086Z,97353.66
2023-01-29T09:55:56.072Z,97341.66
2023-01-29T09:58:31.997Z,97302.47
2023-01-29T10:01:20.569Z,97312.47
2023-01-29T10:04:15.608Z,97321.19
2023-01-29T10:06:42.360Z,97320.91
2023-01-29T10:09:24.113Z,97325.63
2023-01-29T10:12:00.190Z,97336.44
2023-01-29T10:15:05.866Z,97328.88
2023-01-29T10:18:02.241Z,97330.94
2023-01-29T10:20:53.633Z,97324.63
2023-01-29T10:23:27.230Z,97317.81
2023-01-29T10:25:54.626Z,97268.56
2023-01-29T10:28:50.866Z,97314.59
2023-01-29T10:31:36.560Z,97304.41
2023-01-29T10:34:05.843Z,97335.59
2023-01-29T10:36:42.730Z,97357.44
2023-01-29T10:39:24.591Z,97356.09
2023-01-29T10:42:22.356Z,97340.41
2023-01-29T10:45:04.035Z,97342.41
2023-01-29T10:47:45.990Z,97343.81
2023-01-29T10:50:41.849Z,97319.81
2023-01-29T10:53:08.388Z,97305.28
2023-01-29T10:56:05.841Z,97286.75
2023-01-29T10:58:48.489Z,97288.84
2023-01-29T11:01:15.514Z,97273.53
2023-01-29T11:03:42.399Z,97179.59
2023-01-29T11:06:31.549Z,97257.38
2023-01-29T11:09:20.077Z,97261.03
2023-01-29T11:11:54.736Z,97232.25
2023-01-29T11:14:29.247Z,97250.69
2023-01-29T11:16:55.972Z,97206.31
2023-01-29T11:19:40.699Z,97239.09
2023-01-29T11:22:15.065Z,97181.22
2023-01-29T11:24:41.956Z,97178.91
2023-01-29T11:27:26.596Z,97193.78
2023-01-29T11:29:53.941Z,97159.88
2023-01-29T11:32:23.684Z,97224.34
2023-01-29T11:35:05.997Z,97207.50
2023-01-29T11:37:41.029Z,97240.09
2023-01-29T11:40:38.093Z,97231.06
2023-01-29T11:43:31.024Z,97227.47
2023-01-29T11:46:05.115Z,97195.50
2023-01-29T11:48:44.905Z,97204.56
2023-01-29T11:51:22.226Z,97222.06
2023-01-29T11:54:01.858Z,97211.78
2023-01-29T11:56:30.066Z,97223.34
2023-01-29T11:58:57.983Z,97184.47
2023-01-29T12:01:36.316Z,97171.69
2023-01-29T12:04:12.850Z,97176.91
2023-01-29T12:06:44.366Z,97203.81
2023-01-29T12:09:17.385Z,97184.03
2023-01-29T12:11:44.351Z,97199.13
2023-01-29T12:14:36.968Z,97186.06
2023-01-29T12:17:15.470Z,97156.63
2023-01-29T12:19:51.902Z,97174.00
2023-01-29T12:22:33.472Z,97136.38
2023-01-29T12:25:12.369Z,97152.06
2023-01-29T12:27:46.809Z,97129.81
2023-01-29T12:30:31.814Z,97134.50
2023-01-29T12:33:13.220Z,97155.84
2023-01-29T12:35:48.138Z,97144.91
2023-01-29T12:38:18.736Z,97137.91
2023-01-29T12:41:00.825Z,97131.03
2023-01-29T12:43:55.521Z,97127.28
2023-01-29T12:46:26.973Z,97102.78
2023-01-29T12:48:57.806Z,97119.84
2023-01-29T12:51:31.331Z,97082.06
2023-01-29T12:54:05.230Z,97120.69
2023-01-29T12:56:41.107Z,97094.44
2023-01-29T12:59:27.426Z,97123.59
2023-01-29T13:02:02.609Z,97117.41
2023-01-29T13:04:40.216Z,97073.63
2023-01-29T13:07:23.662Z,97111.44
2023-01-29T13:09:57.225Z,97090.97
2023-01-29T13:12:24.551Z,97106.06
2023-01-29T13:15:15.708Z,97102.81
2023-01-29T13:17:53.037Z,97104.25
2023-01-29T13:20:27.985Z,97098.28
2023-01-29T13:22:59.231Z,97076.88
2023-01-29T13:25:26.027Z,97049.84
2023-01-29T13:27:53.458Z,97084.88
2023-01-29T13:30:38.411Z,97100.63
2023-01-29T13:33:09.844Z,97103.34
2023-01-29T13:35:42.721Z,97077.91
2023-01-29T13:38:44.972Z,97093.22
2023-01-29T13:41:12.247Z,97093.50
2023-01-29T13:43:42.775Z,97080.53
2023-01-29T13:46:17.803Z,97098.06
2023-01-29T13:48:48.321Z,97087.50
2023-01-29T13:51:20.304Z,97062.94
2023-01-29T13:54:00.706Z,97089.25
2023-01-29T13:56:33.456Z,97080.47
2023-01-29T13:59:02.733Z,97080.09
2023-01-29T14:01:47.596Z,97088.38
2023-01-29T14:04:25.442Z,97085.53
2023-01-29T14:06:54.446Z,97094.41
2023-01-29T14:09:30.494Z,97077.72
2023-01-29T14:11:57.199Z,97050.81
2023-01-29T14:15:19.003Z,97075.09
2023-01-29T14:18:00.581Z,97028.13
2023-01-29T14:20:47.436Z,97063.22
2023-01-29T14:23:54.333Z,97059.16
2023-01-29T14:26:43.821Z,97067.41
2023-01-29T14:29:18.870Z,97072.34
2023-01-29T14:31:53.187Z,97071.56
2023-01-29T14:34:30.933Z,97066.78
2023-01-29T14:37:20.491Z,97068.81
2023-01-29T14:39:51.772Z,97067.78
2023-01-29T14:42:24.981Z,97041.41
2023-01-29T14:44:54.801Z,97051.28
2023-01-29T14:47:28.014Z,97055.38
2023-01-29T14:49:57.265Z,97031.69
2023-01-29T14:52:33.287Z,97077.94
2023-01-29T14:55:03.027Z,97070.88
2023-01-29T14:57:31.077Z,97070.97
2023-01-29T15:00:02.192Z,97054.34
2023-01-29T15:02:42.084Z,97065.63
2023-01-29T15:05:16.838Z,97024.75
2023-01-29T15:08:00.708Z,97054.78
2023-01-29T15:10:45.530Z,97049.50
2023-01-29T15:13:35.733Z,97034.41
2023-01-29T15:16:14.330Z,97040.50
2023-01-29T15:18:42.545Z,97027.19
2023-01-29T15:21:19.708Z,97043.09
2023-01-29T15:23:48.824Z,97042.19
2023-01-29T15:26:21.965Z,97032.84
2023-01-29T15:29:04.282Z,97008.34
2023-01-29T15:31:32.289Z,97003.63
2023-01-29T15:34:06.278Z,97009.81
2023-01-29T15:36:33.444Z,96999.56
2023-01-29T15:39:12.055Z,97020.38
2023-01-29T15:41:38.794Z,96988.19
2023-01-29T15:44:18.974Z,97022.63
2023-01-29T15:47:04.018Z,97021.97
2023-01-29T15:49:35.648Z,96975.16
2023-01-29T15:52:13.523Z,96995.41
2023-01-29T15:54:40.390Z,97007.56
2023-01-29T15:57:19.119Z,96956.47
2023-01-29T15:59:45.887Z,97000.34
2023-01-29T16:02:35.567Z,97003.16
2023-01-29T16:05:03.782Z,97004.63
2023-01-29T16:07:31.560Z,97003.28
2023-01-29T16:09:59.756Z,96974.69
2023-01-29T16:12:27.376Z,96998.53
2023-01-29T16:14:55.278Z,96975.38
2023-01-29T16:17:30.594Z,96992.38
2023-01-29T16:19:59.596Z,96998.75
2023-01-29T16:22:31.357Z,96990.09
2023-01-29T16:25:02.614Z,96982.56
2023-01-29T16:27:31.094Z,96981.53
2023-01-29T16:29:57.901Z,96994.38
2023-01-29T16:32:24.691Z,96986.38
2023-01-29T16:34:57.505Z,96945.63
2023-01-29T16:37:28.563Z,96979.34
2023-01-29T16:39:55.946Z,97001.84
2023-01-29T16:42:24.419Z,97009.25
2023-01-29T16:44:54.688Z,96995.28
2023-01-29T16:47:30.547Z,97012.75
2023-01-29T16:50:00.775Z,97000.00
2023-01-29T16:52:30.903Z,96997.56
2023-01-29T16:55:12.827Z,97006.78
2023-01-29T16:57:40.987Z,97003.88
2023-01-29T17:00:18.794Z,96953.00
2023-01-29T17:02:45.583Z,97002.75
2023-01-29T17:05:22.484Z,97003.13
2023-01-29T17:07:49.651Z,97010.53
2023-01-29T17:10:20.360Z,96976.44
2023-01-29T17:13:04.119Z,96999.13
2023-01-29T17:15:45.602Z,97013.50
2023-01-29T17:18:23.140Z,97003.69
2023-01-29T17:20:50.883Z,96984.78
2023-01-29T17:23:17.679Z,96978.91
2023-01-29T17:25:45.500Z,96973.47
2023-01-29T17:28:14.273Z,97014.28
2023-01-29T17:30:41.094Z,96997.41
2023-01-29T17:33:16.695Z,96991.91
2023-01-29T17:35:45.246Z,97011.13
2023-01-29T17:38:25.562Z,96978.94
2023-01-29T17:40:59.559Z,96975.00
2023-01-29T17:43:26.406Z,96965.56
2023-01-29T17:45:53.399Z,96974.13
2023-01-29T17:48:24.841Z,97006.47
2023-01-29T17:50:54.184Z,96971.78
2023-01-29T17:53:23.596Z,96995.22
2023-01-29T17:55:50.770Z,96998.09
2023-01-29T17:58:24.295Z,96977.63
2023-01-29T18:00:51.633Z,96971.47
2023-01-29T18:03:18.305Z,96994.34
2023-01-29T18:05:46.645Z,96981.41
2023-01-29T18:08:24.957Z,96991.09
2023-01-29T18:10:51.562Z,96969.69
2023-01-29T18:13:18.156Z,96988.63
2023-01-29T18:15:44.972Z,96949.41
2023-01-29T18:18:22.699Z,96988.41
2023-01-29T18:20:49.874Z,96977.16
2023-01-29T18:23:16.789Z,96999.50
2023-01-29T18:25:44.026Z,96959.28
2023-01-29T18:28:15.802Z,96924.63
2023-01-29T18:30:44.214Z,96972.13
2023-01-29T18:33:11.020Z,96972.25
2023-01-29T18:35:37.877Z,96965.78
2023-01-29T18:38:04.702Z,96995.59
2023-01-29T18:40:32.371Z,96990.97
2023-01-29T18:43:01.905Z,96974.63
2023-01-29T18:45:29.012Z,96970.34
2023-01-29T18:47:56.335Z,97004.28
2023-01-29T18:50:24.990Z,96988.94
2023-01-29T18:52:52.608Z,96985.19
2023-01-29T18:55:19.546Z,96977.88
2023-01-29T18:58:26.349Z,96970.56
2023-01-29T19:00:33.001Z,97004.09
2023-01-29T19:02:59.711Z,96998.50
2023-01-29T19:05:26.401Z,97003.50
2023-01-29T19:07:53.065Z,96951.03
2023-01-29T19:10:20.055Z,96998.59
2023-01-29T19:12:47.711Z,96979.28
2023-01-29T19:15:14.783Z,96961.28
2023-01-29T19:17:41.591Z,96977.69
2023-01-29T19:20:09.607Z,96968.81
2023-01-29T19:22:36.309Z,96969.97
2023-01-29T19:25:02.914Z,96970.06
2023-01-29T19:27:30.576Z,96971.09
2023-01-29T19:29:59.531Z,96951.94
2023-01-29T19:32:28.875Z,96917.56
2023-01-29T19:34:55.756Z,96948.69
2023-01-29T19:37:22.423Z,96954.00
2023-01-29T19:39:49.064Z,96938.44
2023-01-29T19:42:16.002Z,96962.06
2023-01-29T19:44:42.807Z,96960.63
2023-01-29T19:47:09.403Z,96955.28
2023-01-29T19:49:36.109Z,96902.72
2023-01-29T19:52:03.131Z,96945.16
2023-01-29T19:54:30.335Z,96944.41
2023-01-29T19:56:56.946Z,96918.78
2023-01-29T19:59:23.686Z,96906.50
2023-01-29T20:01:50.677Z,96916.94
2023-01-29T20:04:17.488Z,96905.97
2023-01-29T20:06:44.612Z,96888.66
2023-01-29T20:09:11.299Z,96908.28
2023-01-29T20:11:37.919Z,96857.16
2023-01-29T20:14:04.595Z,96879.72
2023-01-29T20:16:31.348Z,96904.75
2023-01-29T20:19:13.354Z,96873.84
2023-01-29T20:21:41.865Z,96871.59
2023-01-29T20:24:12.385Z,96909.31
2023-01-29T20:26:39.184Z,96876.31
2023-01-29T20:29:06.554Z,96886.38
2023-01-29T20:31:33.626Z,96862.50
2023-01-29T20:34:00.460Z,96885.22
2023-01-29T20:36:27.163Z,96867.06
2023-01-29T20:38:53.858Z,96889.00
2023-01-29T20:41:21.380Z,96864.34
2023-01-29T20:43:50.439Z,96861.00
2023-01-29T20:46:17.634Z,96889.81
2023-01-29T20:48:44.574Z,96872.47
2023-01-29T20:51:16.803Z,96879.94
2023-01-29T20:53:45.992Z,96853.88
2023-01-29T20:56:14.976Z,96861.78
2023-01-29T20:58:42.087Z,96879.88
2023-01-29T21:01:15.492Z,96867.66
2023-01-29T21:03:42.635Z,96873.78
2023-01-29T21:06:11.357Z,96846.34
2023-01-29T21:08:38.779Z,96872.97
2023-01-29T21:11:06.948Z,96869.91
2023-01-29T21:13:33.840Z,96885.28
2023-01-29T21:16:00.582Z,96888.84
2023-01-29T21:18:27.279Z,96891.19
2023-01-29T21:20:54.636Z,96896.78
2023-01-29T21:23:22.196Z,96897.44
2023-01-29T21:25:48.824Z,96879.13
2023-01-29T21:28:16.034Z,96869.47
2023-01-29T21:30:42.842Z,96891.56
2023-01-29T21:33:10.036Z,96903.81
2023-01-29T21:35:37.824Z,96880.06
2023-01-29T21:38:04.597Z,96875.38
2023-01-29T21:40:31.349Z,96900.41
2023-01-29T21:43:13.355Z,96877.75
2023-01-29T21:45:40.713Z,96908.31
2023-01-29T21:48:08.116Z,96874.59
2023-01-29T21:50:35.172Z,96836.28
2023-01-29T21:53:02.103Z,96898.00
2023-01-29T21:55:29.111Z,96883.34
2023-01-29T21:57:56.049Z,96867.19
2023-01-29T22:00:22.801Z,96876.47
2023-01-29T22:02:50.214Z,96875.31
2023-01-29T22:05:19.736Z,96865.06
2023-01-29T22:07:48.003Z,96832.31
2023-01-29T22:10:16.271Z,96845.31
2023-01-29T22:12:44.764Z,96849.59
2023-01-29T22:15:12.515Z,96875.25
2023-01-29T22:17:41.312Z,96859.41
2023-01-29T22:20:13.037Z,96861.56
2023-01-29T22:22:39.875Z,96847.50
2023-01-29T22:25:07.074Z,96839.22
2023-01-29T22:27:35.833Z,96833.28
2023-01-29T22:30:03.597Z,96831.78
2023-01-29T22:32:32.358Z,96822.28
2023-01-29T22:34:59.007Z,96800.78
2023-01-29T22:37:25.675Z,96793.84
2023-01-29T22:39:52.360Z,96694.69
2023-01-29T22:42:20.776Z,96792.75
2023-01-29T22:44:48.295Z,96771.78
2023-01-29T22:47:15.263Z,96751.84
2023-01-29T22:49:41.896Z,96754.28
2023-01-29T22:52:11.516Z,96716.81
2023-01-29T22:54:43.134Z,96701.94
2023-01-29T22:57:14.778Z,96706.69
2023-01-29T22:59:41.616Z,96695.63
2023-01-29T23:02:08.934Z,96717.09
2023-01-29T23:04:37.851Z,96676.41
2023-01-29T23:07:04.636Z,96712.22
2023-01-29T23:09:31.317Z,96707.50
2023-01-29T23:11:58.010Z,96670.41
2023-01-29T23:14:24.630Z,96692.22
2023-01-29T23:16:51.231Z,96662.09
2023-01-29T23:19:17.941Z,96702.88
2023-01-29T23:21:44.578Z,96667.13
2023-01-29T23:24:11.538Z,96708.88
2023-01-29T23:26:56.905Z,96619.28
2023-01-29T23:29:23.582Z,96658.19
2023-01-29T23:31:50.245Z,96682.34
2023-01-29T23:34:17.082Z,96672.31
2023-01-29T23:36:43.840Z,96664.41
2023-01-29T23:39:11.114Z,96673.22
2023-01-29T23:41:37.724Z,96643.09
2023-01-29T23:44:04.528Z,96654.44
2023-01-29T23:46:31.912Z,96666.25
2023-01-29T23:48:58.843Z,96633.75
2023-01-29T23:51:25.684Z,96617.78
2023-01-29T23:53:52.412Z,96636.28
2023-01-29T23:56:19.293Z,96642.50
2023-01-29T23:58:46.238Z,96636.66
